Auburn, MA (01501)

10:39 PM EDT on July 28, 2015 (GMT -0400)
Pakachoag Golf Course Vicinity | | Change Station
CLOSE
Current Station
Personal Weather Station
Location: Auburn, MA
Elevation: 640 ft
Nearby Weather Stations

Elev 640 ft 42.22 °N, 71.81 °W | Updated 2 minutes ago

Clear
Clear
71.5 °F
Feels Like 71.5 °F
N
0.0
Wind Variable Wind from NW
Gusts 0.0 mph

Today
High -- | Low -- °F
--% Chance of Precip.
Yesterday
High -- | Low -- °F
Precip. -- in
5:36 AM 8:11 PM
Waxing Gibbous, 93% visible
Pressure 29.99 in
Visibility 10.0 miles
Clouds Clear
Dew Point 69 °F
Humidity 93%
Rainfall 0.22 in
Snow Depth Not available.
UV 0 out of 12
Pollen 4.90 out of 12
Air Quality Not available.
Flu Activity Not available.
METAR KORH 290154Z AUTO 00000KT 10SM CLR 22/19 A3001 RMK AO2 SLP156 T02220189

More Conditions Fewer Conditions

Pressure 29.99 in
Visibility 10.0 miles
Clouds Clear
Dew Point 69 °F
Humidity 93%
Rainfall 0.22 in
Snow Depth Not available.
UV 0 out of 12
Pollen 4.90 out of 12
Air Quality Not available.
Flu Activity Not available.
METAR KORH 290154Z AUTO 00000KT 10SM CLR 22/19 A3001 RMK AO2 SLP156 T02220189

More Conditions Fewer Conditions

10-Day Weather Forecast

×

Almanac

Astronomy

Jul. 28, 2015 Rise Set
Actual Time
Civil Twilight
Nautical Twilight
Astronomical Twilight
Moon
Length of Visible Light
Length of Day
Tomorrow will be .
, % of the Moon is Illuminated

Today's Extremes

State Highs State Lows

Community

WunderPhotos

Upload Photos

1,842,012 photos uploaded!

WunderBlogs® & News

Nearby

Air Quality

  Air Quality AQ Index Pollutant
Not available.

Snow Depth

Station Depth Elevation

Earthquake Activity

City Distance Mag. Time & Date
Minimum magnitude displayed is 2.5.

Coastal Water Temperatures

Place Temperature

Stations

Nearby Weather Stations

Station Location Temp. Windchill Dew Point Humidity Wind Precip. Elev Updated Type